createdAt,value
2022-08-04T00:01:06.362Z,5.20
2022-08-04T00:03:43.857Z,4.47
2022-08-04T00:06:18.226Z,4.53
2022-08-04T00:08:50.063Z,4.30
2022-08-04T00:11:23.690Z,3.97
2022-08-04T00:14:02.899Z,4.60
2022-08-04T00:16:37.649Z,5.27
2022-08-04T00:19:11.296Z,4.60
2022-08-04T00:21:43.347Z,4.00
2022-08-04T00:24:13.988Z,4.63
2022-08-04T00:26:44.227Z,4.47
2022-08-04T00:29:14.245Z,4.43
2022-08-04T00:31:56.473Z,4.10
2022-08-04T00:34:28.634Z,4.37
2022-08-04T00:36:58.308Z,4.80
2022-08-04T00:39:29.357Z,4.70
2022-08-04T00:42:23.174Z,4.57
2022-08-04T00:45:13.987Z,4.10
2022-08-04T00:48:01.899Z,5.00
2022-08-04T00:50:42.535Z,4.90
2022-08-04T00:53:18.256Z,4.40
2022-08-04T00:56:05.372Z,5.37
2022-08-04T00:58:59.778Z,5.13
2022-08-04T01:01:46.566Z,4.80
2022-08-04T01:04:25.635Z,6.13
2022-08-04T01:07:13.732Z,4.97
2022-08-04T01:09:55.764Z,4.97
2022-08-04T01:12:41.878Z,5.67
2022-08-04T01:15:18.963Z,5.17
2022-08-04T01:18:01.033Z,5.20
2022-08-04T01:20:35.894Z,6.23
2022-08-04T01:23:39.377Z,5.87
2022-08-04T01:26:42.425Z,5.07
2022-08-04T01:29:27.466Z,6.07
2022-08-04T01:32:21.035Z,6.27
2022-08-04T01:35:01.305Z,5.13
2022-08-04T01:37:48.667Z,6.07
2022-08-04T01:40:18.061Z,4.90
2022-08-04T01:42:46.761Z,5.73
2022-08-04T01:45:16.972Z,6.30
2022-08-04T01:47:51.458Z,5.63
2022-08-04T01:50:20.898Z,5.70
2022-08-04T01:52:51.305Z,5.20
2022-08-04T01:55:20.740Z,5.17
2022-08-04T01:57:51.609Z,5.20
2022-08-04T02:00:24.401Z,6.47
2022-08-04T02:02:53.347Z,5.93
2022-08-04T02:05:24.701Z,5.83
2022-08-04T02:08:05.932Z,6.40
2022-08-04T02:10:48.412Z,6.30
2022-08-04T02:13:24.644Z,5.57
2022-08-04T02:16:02.662Z,5.27
2022-08-04T02:18:36.779Z,5.33
2022-08-04T02:21:06.503Z,6.30
2022-08-04T02:23:38.932Z,6.33
2022-08-04T02:26:15.494Z,5.87
2022-08-04T02:28:59.410Z,6.33
2022-08-04T02:31:34.473Z,5.50
2022-08-04T02:34:09.835Z,5.67
2022-08-04T02:36:40.480Z,6.30
2022-08-04T02:39:10.469Z,6.23
2022-08-04T02:41:40.195Z,5.70
2022-08-04T02:44:10.345Z,6.60
2022-08-04T02:46:42.830Z,6.00
2022-08-04T02:49:12.140Z,6.40
2022-08-04T02:51:43.688Z,7.97
2022-08-04T02:54:12.413Z,6.07
2022-08-04T02:56:42.785Z,6.23
2022-08-04T02:59:14.948Z,7.50
2022-08-04T03:01:57.112Z,6.90
2022-08-04T03:04:39.131Z,6.07
2022-08-04T03:07:37.307Z,6.20
2022-08-04T03:10:37.570Z,5.90
2022-08-04T03:13:41.517Z,6.50
2022-08-04T03:16:47.983Z,7.60
2022-08-04T03:19:59.532Z,6.70
2022-08-04T03:23:15.647Z,7.60
2022-08-04T03:26:05.632Z,6.80
2022-08-04T03:29:11.086Z,7.10
2022-08-04T03:32:24.217Z,7.30
2022-08-04T03:35:22.962Z,7.57
2022-08-04T03:38:18.625Z,9.30
2022-08-04T03:41:16.925Z,8.63
2022-08-04T03:44:43.607Z,7.00
2022-08-04T03:47:44.496Z,7.63
2022-08-04T03:50:41.806Z,8.27
2022-08-04T03:53:33.377Z,6.83
2022-08-04T03:56:44.627Z,8.50
2022-08-04T03:59:47.960Z,7.27
2022-08-04T04:02:46.165Z,7.30
2022-08-04T04:05:59.840Z,7.60
2022-08-04T04:09:08.080Z,7.63
2022-08-04T04:12:01.648Z,8.10
2022-08-04T04:14:49.374Z,7.77
2022-08-04T04:17:50.461Z,6.60
2022-08-04T04:20:56.470Z,7.17
2022-08-04T04:23:41.484Z,8.43
2022-08-04T04:26:38.300Z,8.90
2022-08-04T04:29:29.528Z,6.23
2022-08-04T04:32:19.387Z,7.20
2022-08-04T04:34:58.819Z,7.70
2022-08-04T04:37:49.839Z,7.50
2022-08-04T04:40:32.792Z,8.30
2022-08-04T04:43:20.850Z,9.07
2022-08-04T04:45:59.855Z,8.10
2022-08-04T04:48:37.667Z,7.40
2022-08-04T04:51:15.040Z,8.37
2022-08-04T04:54:00.184Z,8.50
2022-08-04T04:56:34.378Z,7.13
2022-08-04T04:59:04.367Z,8.83
2022-08-04T05:01:57.768Z,7.33
2022-08-04T05:04:50.812Z,7.40
2022-08-04T05:08:43.182Z,8.70
2022-08-04T05:11:14.998Z,5.53
2022-08-04T05:14:39.069Z,5.80
2022-08-04T05:16:38.503Z,5.20
2022-08-04T05:19:19.853Z,4.90
2022-08-04T05:21:51.113Z,5.40
2022-08-04T05:24:22.059Z,4.63
2022-08-04T05:26:55.469Z,5.30
2022-08-04T05:29:30.872Z,4.10
2022-08-04T05:32:04.152Z,4.60
2022-08-04T05:34:36.433Z,4.60
2022-08-04T05:37:10.128Z,5.67
2022-08-04T05:39:55.056Z,5.17
2022-08-04T05:42:25.842Z,4.43
2022-08-04T05:44:55.548Z,4.47
2022-08-04T05:47:25.351Z,5.23
2022-08-04T05:50:01.414Z,4.50
2022-08-04T05:52:31.593Z,4.70
2022-08-04T05:55:01.446Z,4.33
2022-08-04T05:57:32.818Z,4.37
2022-08-04T06:00:14.824Z,4.43
2022-08-04T06:02:53.776Z,3.73
2022-08-04T06:05:23.196Z,4.13
2022-08-04T06:08:04.503Z,4.60
2022-08-04T06:10:41.879Z,4.20
2022-08-04T06:13:48.456Z,4.17
2022-08-04T06:16:06.634Z,4.40
2022-08-04T06:19:59.485Z,3.70
2022-08-04T06:21:29.273Z,4.33
2022-08-04T06:24:04.305Z,3.80
2022-08-04T06:26:35.818Z,4.70
2022-08-04T06:29:11.404Z,4.27
2022-08-04T06:32:28.566Z,4.33
2022-08-04T06:34:36.861Z,4.30
2022-08-04T06:37:07.475Z,4.03
2022-08-04T06:39:37.109Z,3.83
2022-08-04T06:42:21.343Z,4.00
2022-08-04T06:44:55.042Z,4.33
2022-08-04T06:47:23.995Z,4.00
2022-08-04T06:51:23.053Z,3.20
2022-08-04T06:52:45.114Z,4.90
2022-08-04T06:55:14.147Z,3.80
2022-08-04T06:57:44.431Z,4.37
2022-08-04T07:00:18.059Z,3.70
2022-08-04T07:02:49.147Z,3.10
2022-08-04T07:05:19.019Z,4.13
2022-08-04T07:07:56.881Z,3.83
2022-08-04T07:10:28.275Z,3.80
2022-08-04T07:12:57.815Z,3.33
2022-08-04T07:15:28.394Z,3.20
2022-08-04T07:18:00.182Z,4.37
2022-08-04T07:20:35.267Z,3.93
2022-08-04T07:23:05.513Z,4.43
2022-08-04T07:25:59.954Z,3.30
2022-08-04T07:28:26.288Z,4.10
2022-08-04T07:30:57.504Z,4.40
2022-08-04T07:33:27.145Z,4.77
2022-08-04T07:36:05.487Z,3.50
2022-08-04T07:38:48.293Z,3.87
2022-08-04T07:41:39.060Z,4.03
2022-08-04T07:44:09.390Z,3.90
2022-08-04T07:46:39.677Z,3.30
2022-08-04T07:49:08.700Z,3.00
2022-08-04T07:51:38.458Z,3.47
2022-08-04T07:54:11.117Z,3.77
2022-08-04T07:56:41.569Z,3.60
2022-08-04T07:59:10.829Z,2.70
2022-08-04T08:01:41.349Z,3.90
2022-08-04T08:04:11.873Z,3.30
2022-08-04T08:06:43.490Z,3.30
2022-08-04T08:09:14.673Z,3.50
2022-08-04T08:12:38.380Z,3.40
2022-08-04T08:14:35.096Z,4.17
2022-08-04T08:17:05.716Z,3.80
2022-08-04T08:19:35.509Z,3.47
2022-08-04T08:22:04.245Z,3.47
2022-08-04T08:24:36.316Z,2.83
2022-08-04T08:27:05.950Z,3.43
2022-08-04T08:29:36.276Z,3.73
2022-08-04T08:32:09.158Z,3.37
2022-08-04T08:34:38.828Z,3.30
2022-08-04T08:37:14.603Z,3.73
2022-08-04T08:39:50.661Z,2.90
2022-08-04T08:42:48.616Z,2.97
2022-08-04T08:45:41.864Z,3.90
2022-08-04T08:48:36.823Z,2.40
2022-08-04T08:51:28.650Z,2.80
2022-08-04T08:54:32.595Z,2.50
2022-08-04T08:57:18.213Z,3.30
2022-08-04T09:00:02.547Z,2.80
2022-08-04T09:03:03.970Z,2.80
2022-08-04T09:06:14.963Z,3.17
2022-08-04T09:09:26.274Z,3.03
2022-08-04T09:12:07.120Z,2.83
2022-08-04T09:14:46.858Z,2.53
2022-08-04T09:17:24.163Z,2.90
2022-08-04T09:19:58.717Z,2.90
2022-08-04T09:22:37.947Z,2.80
2022-08-04T09:25:13.367Z,2.70
2022-08-04T09:27:50.235Z,3.03
2022-08-04T09:30:22.653Z,2.87
2022-08-04T09:33:01.680Z,5.80
2022-08-04T09:35:41.382Z,2.73
2022-08-04T09:38:20.507Z,2.60
2022-08-04T09:40:58.584Z,2.30
2022-08-04T09:44:40.798Z,2.77
2022-08-04T09:46:38.188Z,2.33
2022-08-04T09:49:15.704Z,2.30
2022-08-04T09:51:59.609Z,2.60
2022-08-04T09:54:44.947Z,3.23
2022-08-04T09:57:28.546Z,2.20
2022-08-04T10:00:03.545Z,2.63
2022-08-04T10:02:35.737Z,1.93
2022-08-04T10:05:08.033Z,2.17
2022-08-04T10:08:16.141Z,2.67
2022-08-04T10:10:57.897Z,2.60
2022-08-04T10:13:39.498Z,2.10
2022-08-04T10:16:21.622Z,2.23
2022-08-04T10:19:08.243Z,1.87
2022-08-04T10:21:59.202Z,2.30
2022-08-04T10:24:44.471Z,2.57
2022-08-04T10:27:22.148Z,2.07
2022-08-04T10:29:51.008Z,1.90
2022-08-04T10:32:22.493Z,2.40
2022-08-04T10:35:05.646Z,2.27
2022-08-04T10:37:59.265Z,2.40
2022-08-04T10:40:37.678Z,2.73
2022-08-04T10:43:20.699Z,2.13
2022-08-04T10:45:57.798Z,2.53
2022-08-04T10:48:37.017Z,2.30
2022-08-04T10:51:20.069Z,2.40
2022-08-04T10:53:54.683Z,2.23
2022-08-04T10:56:30.845Z,2.10
2022-08-04T10:59:09.269Z,2.40
2022-08-04T11:02:03.041Z,2.27
2022-08-04T11:04:49.647Z,2.67
2022-08-04T11:07:19.211Z,2.07
2022-08-04T11:09:49.194Z,2.20
2022-08-04T11:12:22.407Z,2.57
2022-08-04T11:14:57.670Z,2.50
2022-08-04T11:17:33.526Z,2.00
2022-08-04T11:20:34.171Z,2.63
2022-08-04T11:23:10.842Z,2.27
2022-08-04T11:25:52.457Z,2.40
2022-08-04T11:28:35.207Z,2.80
2022-08-04T11:31:09.005Z,2.47
2022-08-04T11:33:46.156Z,2.73
2022-08-04T11:36:21.907Z,2.70
2022-08-04T11:39:00.624Z,2.20
2022-08-04T11:41:40.292Z,2.57
2022-08-04T11:44:13.155Z,2.90
2022-08-04T11:46:49.715Z,2.00
2022-08-04T11:49:27.388Z,2.10
2022-08-04T11:51:59.503Z,2.50
2022-08-04T11:54:28.855Z,2.93
2022-08-04T11:56:57.781Z,3.10
2022-08-04T11:59:27.725Z,2.37
2022-08-04T12:02:21.011Z,2.37
2022-08-04T12:04:57.653Z,2.40
2022-08-04T12:07:41.655Z,2.57
2022-08-04T12:10:40.980Z,2.80
2022-08-04T12:13:20.092Z,2.43
2022-08-04T12:15:57.270Z,2.50
2022-08-04T12:18:43.479Z,3.07
2022-08-04T12:21:19.630Z,2.17
2022-08-04T12:24:00.459Z,3.27
2022-08-04T12:26:34.037Z,2.80
2022-08-04T12:29:10.206Z,2.30
2022-08-04T12:31:46.914Z,2.20
2022-08-04T12:34:24.000Z,2.93
2022-08-04T12:37:05.891Z,2.30
2022-08-04T12:39:39.623Z,2.93
2022-08-04T12:42:34.966Z,2.60
2022-08-04T12:45:08.395Z,2.90
2022-08-04T12:47:38.634Z,3.13
2022-08-04T12:50:11.712Z,3.00
2022-08-04T12:53:03.088Z,2.30
2022-08-04T12:55:37.112Z,3.10
2022-08-04T12:58:16.334Z,2.97
2022-08-04T13:02:07.187Z,3.10
2022-08-04T13:03:59.527Z,2.53
2022-08-04T13:06:32.309Z,3.03
2022-08-04T13:09:07.124Z,2.70
2022-08-04T13:11:41.509Z,2.90
2022-08-04T13:14:27.185Z,2.80
2022-08-04T13:16:59.904Z,3.20
2022-08-04T13:19:30.357Z,2.63
2022-08-04T13:22:02.868Z,2.73
2022-08-04T13:24:47.158Z,2.93
2022-08-04T13:27:24.681Z,2.90
2022-08-04T13:29:58.919Z,2.70
2022-08-04T13:32:32.830Z,2.47
2022-08-04T13:35:05.816Z,3.00
2022-08-04T13:37:38.083Z,3.10
2022-08-04T13:40:11.489Z,2.50
2022-08-04T13:42:41.376Z,2.93
2022-08-04T13:45:11.134Z,3.20
2022-08-04T13:47:41.779Z,2.40
2022-08-04T13:50:20.943Z,2.70
2022-08-04T13:52:54.239Z,3.20
2022-08-04T13:55:29.149Z,2.60
2022-08-04T13:58:06.356Z,3.53
2022-08-04T14:00:52.751Z,2.90
2022-08-04T14:03:28.089Z,2.63
2022-08-04T14:06:31.212Z,2.90
2022-08-04T14:09:13.055Z,2.70
2022-08-04T14:12:09.269Z,3.80
2022-08-04T14:14:39.262Z,2.60
2022-08-04T14:17:20.589Z,3.10
2022-08-04T14:19:57.050Z,2.50
2022-08-04T14:22:37.625Z,4.00
2022-08-04T14:25:17.892Z,2.60
2022-08-04T14:27:49.284Z,2.70
2022-08-04T14:30:30.308Z,2.57
2022-08-04T14:33:59.459Z,3.00
2022-08-04T14:36:04.268Z,3.10
2022-08-04T14:38:45.425Z,2.27
2022-08-04T14:41:17.846Z,2.67
2022-08-04T14:43:48.587Z,3.00
2022-08-04T14:46:17.530Z,2.50
2022-08-04T14:49:10.322Z,2.77
2022-08-04T14:51:46.263Z,2.97
2022-08-04T14:54:18.790Z,2.70
2022-08-04T14:56:56.624Z,2.80
2022-08-04T14:59:25.891Z,2.50
2022-08-04T15:02:00.001Z,3.30
2022-08-04T15:04:31.360Z,3.10
2022-08-04T15:07:00.722Z,2.90
2022-08-04T15:09:34.421Z,3.33
2022-08-04T15:12:05.500Z,3.20
2022-08-04T15:14:37.189Z,2.90
2022-08-04T15:17:29.342Z,3.10
2022-08-04T15:19:58.994Z,2.43
2022-08-04T15:22:27.975Z,2.50
2022-08-04T15:24:58.868Z,2.67
2022-08-04T15:27:32.199Z,3.00
2022-08-04T15:30:07.766Z,2.40
2022-08-04T15:32:39.283Z,2.90
2022-08-04T15:35:21.003Z,3.40
2022-08-04T15:38:02.599Z,2.90
2022-08-04T15:40:37.714Z,3.80
2022-08-04T15:43:26.967Z,2.97
2022-08-04T15:46:33.177Z,2.83
2022-08-04T15:48:50.293Z,3.20
2022-08-04T15:51:30.502Z,3.10
2022-08-04T15:54:30.683Z,3.37
2022-08-04T15:57:03.574Z,3.63
2022-08-04T16:00:00.575Z,3.10
2022-08-04T16:02:40.890Z,2.70
2022-08-04T16:05:35.599Z,2.37
2022-08-04T16:08:12.329Z,2.97
2022-08-04T16:10:42.748Z,3.03
2022-08-04T16:13:14.446Z,2.80
2022-08-04T16:15:46.856Z,3.33
2022-08-04T16:18:26.610Z,3.20
2022-08-04T16:20:58.164Z,3.13
2022-08-04T16:24:11.406Z,2.97
2022-08-04T16:26:56.557Z,3.17
2022-08-04T16:29:39.599Z,2.73
2022-08-04T16:32:15.526Z,2.80
2022-08-04T16:34:54.187Z,3.23
2022-08-04T16:37:30.253Z,2.97
2022-08-04T16:40:34.131Z,2.97
2022-08-04T16:43:07.238Z,3.37
2022-08-04T16:45:59.109Z,3.30
2022-08-04T16:48:30.610Z,2.90
2022-08-04T16:51:11.281Z,2.70
2022-08-04T16:53:52.030Z,2.70
2022-08-04T16:56:33.596Z,3.13
2022-08-04T16:59:09.751Z,2.70
2022-08-04T17:01:45.500Z,3.07
2022-08-04T17:04:16.052Z,3.00
2022-08-04T17:06:46.941Z,3.07
2022-08-04T17:09:19.864Z,2.60
2022-08-04T17:11:49.628Z,3.10
2022-08-04T17:14:24.066Z,2.77
2022-08-04T17:16:53.693Z,2.83
2022-08-04T17:19:26.372Z,2.73
2022-08-04T17:22:02.857Z,3.20
2022-08-04T17:24:34.545Z,2.83
2022-08-04T17:27:04.408Z,4.73
2022-08-04T17:29:52.110Z,2.77
2022-08-04T17:32:23.208Z,2.60
2022-08-04T17:34:57.226Z,3.20
2022-08-04T17:37:39.135Z,3.40
2022-08-04T17:40:13.184Z,3.40
2022-08-04T17:42:45.304Z,3.53
2022-08-04T17:48:09.981Z,3.00
2022-08-04T17:50:43.510Z,3.53
2022-08-04T17:53:14.208Z,3.70
2022-08-04T17:55:49.862Z,3.27
2022-08-04T18:01:24.319Z,3.53
2022-08-04T18:03:58.053Z,2.83
2022-08-04T18:06:28.267Z,3.23
2022-08-04T18:08:58.839Z,3.40
2022-08-04T18:11:29.589Z,3.50
2022-08-04T18:14:19.036Z,3.40
2022-08-04T18:16:57.253Z,3.03
2022-08-04T18:19:31.426Z,3.10
2022-08-04T18:22:01.508Z,3.20
2022-08-04T18:24:36.101Z,3.50
2022-08-04T18:27:23.695Z,3.47
2022-08-04T18:30:33.854Z,3.43
2022-08-04T18:33:04.295Z,3.60
2022-08-04T18:36:33.572Z,3.37
2022-08-04T18:38:23.433Z,3.20
2022-08-04T18:41:00.331Z,3.20
2022-08-04T18:43:40.514Z,3.00
2022-08-04T18:46:14.751Z,3.17
2022-08-04T18:48:45.178Z,3.50
2022-08-04T18:51:22.865Z,3.90
2022-08-04T18:53:55.353Z,4.13
2022-08-04T19:02:16.917Z,3.57
2022-08-04T19:04:49.684Z,3.27
2022-08-04T19:07:24.356Z,3.17
2022-08-04T19:10:26.342Z,3.20
2022-08-04T19:12:55.884Z,3.37
2022-08-04T19:15:34.434Z,3.57
2022-08-04T19:18:07.112Z,3.43
2022-08-04T19:24:28.951Z,3.03
2022-08-04T19:26:11.304Z,3.27
2022-08-04T19:28:51.229Z,3.17
2022-08-04T19:31:19.321Z,2.73
2022-08-04T19:33:59.770Z,3.10
2022-08-04T19:36:32.394Z,3.10
2022-08-04T19:39:04.393Z,2.80
2022-08-04T19:46:45.314Z,3.40
2022-08-04T19:50:03.210Z,3.27
2022-08-04T19:52:00.163Z,3.50
2022-08-04T19:54:32.261Z,3.03
2022-08-04T19:57:00.860Z,3.30
2022-08-04T19:59:32.347Z,2.67
2022-08-04T20:02:02.306Z,2.97
2022-08-04T20:04:31.325Z,3.03
2022-08-04T20:07:00.721Z,3.87
2022-08-04T20:09:29.444Z,3.07
2022-08-04T20:12:06.905Z,3.33
2022-08-04T20:14:39.083Z,3.07
2022-08-04T20:17:10.788Z,3.23
2022-08-04T20:19:39.685Z,3.77
2022-08-04T20:22:52.298Z,3.40
2022-08-04T20:25:11.007Z,2.90
2022-08-04T20:27:59.684Z,3.20
2022-08-04T20:30:30.038Z,3.27
2022-08-04T20:33:01.233Z,3.50
2022-08-04T20:35:30.280Z,3.90
2022-08-04T20:38:01.484Z,3.53
2022-08-04T20:40:31.099Z,3.50
2022-08-04T20:42:59.839Z,2.80
2022-08-04T20:45:56.492Z,3.23
2022-08-04T20:48:18.377Z,3.40
2022-08-04T20:50:47.943Z,3.17
2022-08-04T20:53:17.385Z,3.40
2022-08-04T20:55:55.807Z,4.17
2022-08-04T20:58:27.134Z,3.90
2022-08-04T21:00:57.087Z,3.47
2022-08-04T21:03:49.786Z,3.77
2022-08-04T21:06:15.845Z,3.90
2022-08-04T21:08:57.046Z,3.33
2022-08-04T21:11:32.476Z,3.40
2022-08-04T21:14:01.800Z,3.40
2022-08-04T21:16:55.120Z,3.43
2022-08-04T21:19:24.403Z,3.60
2022-08-04T21:21:53.597Z,3.67
2022-08-04T21:24:26.155Z,3.30
2022-08-04T21:26:57.132Z,3.63
2022-08-04T21:29:29.552Z,3.60
2022-08-04T21:32:10.635Z,3.43
2022-08-04T21:34:43.900Z,4.17
2022-08-04T21:37:22.578Z,3.23
2022-08-04T21:40:15.498Z,3.90
2022-08-04T21:42:53.455Z,3.60
2022-08-04T21:45:22.311Z,3.90
2022-08-04T21:47:51.099Z,3.07
2022-08-04T21:50:21.197Z,3.17
2022-08-04T21:52:50.201Z,4.40
2022-08-04T21:55:19.484Z,4.37
2022-08-04T21:57:49.302Z,3.70
2022-08-04T22:00:20.241Z,3.23
2022-08-04T22:02:53.209Z,4.00
2022-08-04T22:05:23.851Z,3.70
2022-08-04T22:07:53.115Z,4.17
2022-08-04T22:10:22.546Z,4.40
2022-08-04T22:13:06.721Z,4.37
2022-08-04T22:16:03.737Z,4.17
2022-08-04T22:18:27.836Z,4.30
2022-08-04T22:20:57.974Z,4.43
2022-08-04T22:23:26.873Z,4.20
2022-08-04T22:25:56.147Z,4.57
2022-08-04T22:28:28.759Z,4.30
2022-08-04T22:30:58.245Z,4.33
2022-08-04T22:33:54.338Z,4.17
2022-08-04T22:36:17.901Z,4.30
2022-08-04T22:38:52.276Z,4.10
2022-08-04T22:41:34.433Z,6.20
2022-08-04T22:44:17.139Z,4.20
2022-08-04T22:46:49.267Z,4.60
2022-08-04T22:49:17.825Z,5.10
2022-08-04T22:51:53.806Z,4.50
2022-08-04T22:54:22.329Z,4.20
2022-08-04T22:56:54.743Z,4.70
2022-08-04T22:59:25.552Z,4.33
2022-08-04T23:01:59.218Z,4.80
2022-08-04T23:04:30.868Z,4.67
2022-08-04T23:07:09.267Z,4.60
2022-08-04T23:09:50.777Z,4.63
2022-08-04T23:12:25.948Z,4.67
2022-08-04T23:14:56.241Z,4.30
2022-08-04T23:17:25.444Z,4.47
2022-08-04T23:19:57.694Z,4.43
2022-08-04T23:22:41.835Z,4.33
2022-08-04T23:25:16.461Z,4.40
2022-08-04T23:27:50.769Z,4.97
2022-08-04T23:30:21.924Z,4.30
2022-08-04T23:32:53.849Z,4.60
2022-08-04T23:35:22.909Z,4.50
2022-08-04T23:37:56.967Z,4.87
2022-08-04T23:40:33.454Z,4.73
2022-08-04T23:43:16.125Z,4.73
2022-08-04T23:46:08.295Z,5.00
2022-08-04T23:48:35.422Z,4.33
2022-08-04T23:51:14.452Z,4.37
2022-08-04T23:54:03.482Z,4.03
2022-08-04T23:56:34.020Z,4.97
2022-08-04T23:59:03.844Z,4.70
